Aviation Digital Data Service (ADDS)

Output produced by METARs form (1053 UTC 16 January 2017)
found at http://aviationweather.gov/adds/metars/
 
METAR text: KSPB 160953Z AUTO 17006KT 10SM FEW095 M04/M09 A3032 RMK AO2 SLP268 T10441089
Conditions at: KSPB (SCAPPOOSE , OR, US) observed 0953 UTC 16 January 2017
Temperature: -4.4°C (24°F)
Dewpoint: -8.9°C (16°F) [RH = 71%]
Pressure (altimeter): 30.32 inches Hg (1026.8 mb)
[Sea-level pressure: 1026.8 mb]
Winds: from the S (170 degrees) at 7 MPH (6 knots; 3.1 m/s)
Visibility: 10 or more miles (16+ km)
Ceiling: at least 12,000 feet AGL
Clouds: few clouds at 9500 feet AGL
Weather: automated observation with no human augmentation;
there may or may not be significant weather present at this time